Time;durP1;ratioP1;P1;durP2;ratioP2;P2;SDS_P1;SDS_P2;PMS_P1;PMS_P2;Temp;Humidity;BMP_temperature;BMP_pressure;BME280_temperature;BME280_humidity;BME280_pressure;Samples;Min_cycle;Max_cycle;Signal;HPM_P1;HPM_P2
2021/06/28 00:00:19;;;;;;;0.20;0.20;;;;;;;;;;4896815;29;20041;-86
2021/06/28 00:02:45;;;;;;;0.10;0.10;;;;;;;;;;4896680;29;20040;-86
2021/06/28 00:05:12;;;;;;;0.10;0.10;;;;;;;;;;4881081;29;20048;-86
2021/06/28 00:07:39;;;;;;;0.10;0.10;;;;;;;;;;4896653;29;20047;-86
2021/06/28 00:10:05;;;;;;;0.10;0.10;;;;;;;;;;4896794;29;20069;-86
2021/06/28 00:12:32;;;;;;;0.10;0.10;;;;;;;;;;4896571;29;20447;-85
2021/06/28 00:14:59;;;;;;;0.20;0.20;;;;;;;;;;4896437;29;20044;-85
2021/06/28 00:17:25;;;;;;;0.10;0.10;;;;;;;;;;4880859;29;20040;-86
2021/06/28 00:19:52;;;;;;;0.10;0.10;;;;;;;;;;4896277;29;20123;-86
2021/06/28 00:22:18;;;;;;;0.10;0.10;;;;;;;;;;4896232;29;20057;-86
2021/06/28 00:24:45;;;;;;;0.10;0.10;;;;;;;;;;4880832;29;20045;-86
2021/06/28 00:27:11;;;;;;;0.10;0.10;;;;;;;;;;4896245;29;20072;-86
2021/06/28 00:29:37;;;;;;;0.25;0.17;;;;;;;;;;4881018;29;20048;-86
2021/06/28 00:32:03;;;;;;;0.10;0.10;;;;;;;;;;4896112;29;20127;-86
2021/06/28 00:34:29;;;;;;;0.10;0.10;;;;;;;;;;4895948;29;20037;-85
2021/06/28 00:36:56;;;;;;;0.10;0.10;;;;;;;;;;4896036;29;20044;-87
2021/06/28 00:39:22;;;;;;;0.10;0.10;;;;;;;;;;4896017;29;20048;-86
2021/06/28 00:41:48;;;;;;;0.10;0.10;;;;;;;;;;4880606;29;20478;-86
2021/06/28 00:44:14;;;;;;;0.10;0.10;;;;;;;;;;4896047;29;20044;-85
2021/06/28 00:46:40;;;;;;;0.10;0.10;;;;;;;;;;4896201;29;20128;-85
2021/06/28 00:49:06;;;;;;;0.10;0.10;;;;;;;;;;4897192;29;20136;-86
2021/06/28 00:51:32;;;;;;;0.17;0.15;;;;;;;;;;4880423;29;20101;-86
2021/06/28 00:53:58;;;;;;;0.15;0.15;;;;;;;;;;4880404;29;20049;-86
2021/06/28 00:56:24;;;;;;;0.10;0.10;;;;;;;;;;4880408;29;20045;-86
2021/06/28 00:58:50;;;;;;;0.13;0.13;;;;;;;;;;4880308;29;20394;-86
2021/06/28 01:01:16;;;;;;;0.10;0.10;;;;;;;;;;4895848;29;20559;-86
2021/06/28 01:03:42;;;;;;;0.10;0.10;;;;;;;;;;4896894;29;20071;-85
2021/06/28 01:06:11;;;;;;;0.10;0.10;;;;;;;;;;4895841;29;20124;-86
2021/06/28 01:08:37;;;;;;;0.13;0.13;;;;;;;;;;4895749;29;20388;-86
2021/06/28 01:11:03;;;;;;;0.10;0.10;;;;;;;;;;4895842;29;20068;-86
2021/06/28 01:13:33;;;;;;;0.10;0.10;;;;;;;;;;4895765;29;20499;-87
2021/06/28 01:16:01;;;;;;;0.10;0.10;;;;;;;;;;4880566;29;20384;-85
2021/06/28 01:18:27;;;;;;;0.30;0.30;;;;;;;;;;4895612;29;20048;-86
2021/06/28 01:20:53;;;;;;;0.10;0.10;;;;;;;;;;4895544;29;20057;-85
2021/06/28 01:23:26;;;;;;;0.10;0.10;;;;;;;;;;4895697;29;20051;-86
2021/06/28 01:25:53;;;;;;;0.10;0.10;;;;;;;;;;4895729;29;20337;-86
2021/06/28 01:28:19;;;;;;;0.10;0.10;;;;;;;;;;4895543;29;20455;-87
2021/06/28 01:30:46;;;;;;;0.10;0.10;;;;;;;;;;4895602;29;20451;-86
2021/06/28 01:33:12;;;;;;;0.10;0.10;;;;;;;;;;4880225;29;20036;-88
2021/06/28 01:35:39;;;;;;;0.10;0.10;;;;;;;;;;4897022;29;20041;-86
2021/06/28 01:38:05;;;;;;;0.10;0.10;;;;;;;;;;4899291;29;20070;-86
2021/06/28 01:40:31;;;;;;;0.10;0.10;;;;;;;;;;4899216;29;20049;-86
2021/06/28 01:42:58;;;;;;;0.20;0.20;;;;;;;;;;4883561;29;20049;-86
2021/06/28 01:45:24;;;;;;;0.10;0.10;;;;;;;;;;4883581;29;20490;-86
2021/06/28 01:47:53;;;;;;;1.10;1.00;;;;;;;;;;4900232;29;20044;-86
2021/06/28 01:50:19;;;;;;;0.10;0.10;;;;;;;;;;4898994;29;20055;-86
2021/06/28 01:52:45;;;;;;;0.10;0.10;;;;;;;;;;4883835;29;20044;-86
2021/06/28 01:55:13;;;;;;;0.10;0.10;;;;;;;;;;4883688;29;20048;-86
2021/06/28 01:57:42;;;;;;;0.10;0.10;;;;;;;;;;4900043;29;20047;-86
2021/06/28 02:00:09;;;;;;;0.17;0.17;;;;;;;;;;4898749;29;20049;-85
2021/06/28 02:02:35;;;;;;;0.10;0.10;;;;;;;;;;4900080;29;20131;-85
2021/06/28 02:05:01;;;;;;;0.10;0.10;;;;;;;;;;4900137;29;20041;-86
2021/06/28 02:07:27;;;;;;;0.20;0.20;;;;;;;;;;4899971;29;20037;-86
2021/06/28 02:09:53;;;;;;;0.20;0.20;;;;;;;;;;4898883;29;20044;-86
2021/06/28 02:12:19;;;;;;;0.32;0.32;;;;;;;;;;4898660;29;20163;-86
2021/06/28 02:14:45;;;;;;;0.15;0.15;;;;;;;;;;4898753;29;20040;-86
2021/06/28 02:17:13;;;;;;;0.20;0.20;;;;;;;;;;4898683;29;20045;-86
2021/06/28 02:19:39;;;;;;;0.10;0.10;;;;;;;;;;4898409;29;20044;-86
2021/06/28 02:22:05;;;;;;;0.10;0.10;;;;;;;;;;4898393;29;20062;-86
2021/06/28 02:24:31;;;;;;;0.10;0.10;;;;;;;;;;4882888;29;20044;-85
2021/06/28 02:26:57;;;;;;;0.20;0.20;;;;;;;;;;4898266;29;20040;-86
2021/06/28 02:29:23;;;;;;;0.10;0.10;;;;;;;;;;4898430;29;20056;-86
2021/06/28 02:31:49;;;;;;;0.20;0.20;;;;;;;;;;4899667;29;20037;-87
2021/06/28 02:34:15;;;;;;;0.10;0.10;;;;;;;;;;4899727;29;20100;-86
2021/06/28 02:36:41;;;;;;;0.10;0.10;;;;;;;;;;4898307;29;20044;-85
2021/06/28 02:39:07;;;;;;;0.10;0.10;;;;;;;;;;4898208;29;20325;-86
2021/06/28 02:41:34;;;;;;;0.10;0.10;;;;;;;;;;4898093;29;20037;-86
2021/06/28 02:44:00;;;;;;;0.17;0.17;;;;;;;;;;4898049;29;20375;-86
2021/06/28 02:46:26;;;;;;;0.20;0.20;;;;;;;;;;4897329;29;20047;-86
2021/06/28 02:48:52;;;;;;;0.10;0.10;;;;;;;;;;4882029;29;20048;-86
2021/06/28 02:51:18;;;;;;;0.10;0.10;;;;;;;;;;4898214;29;20037;-86
2021/06/28 02:53:44;;;;;;;0.10;0.10;;;;;;;;;;4898184;29;20446;-86
2021/06/28 02:56:14;;;;;;;0.10;0.10;;;;;;;;;;4882343;29;20032;-86
2021/06/28 02:58:48;;;;;;;0.20;0.20;;;;;;;;;;4897942;29;20119;-86
2021/06/28 03:01:14;;;;;;;0.10;0.10;;;;;;;;;;4898023;29;20435;-85
2021/06/28 03:03:40;;;;;;;0.10;0.10;;;;;;;;;;4882256;29;20052;-86
2021/06/28 03:06:06;;;;;;;0.10;0.10;;;;;;;;;;4897758;29;20458;-86
2021/06/28 03:08:32;;;;;;;0.10;0.10;;;;;;;;;;4898825;29;20040;-87
2021/06/28 03:11:01;;;;;;;0.10;0.10;;;;;;;;;;4897669;29;20048;-86
2021/06/28 03:13:28;;;;;;;0.10;0.10;;;;;;;;;;4897681;29;20045;-86
2021/06/28 03:15:54;;;;;;;0.45;0.45;;;;;;;;;;4897561;29;20048;-86
2021/06/28 03:18:22;;;;;;;0.10;0.10;;;;;;;;;;4882253;29;20403;-86
2021/06/28 03:20:48;;;;;;;0.10;0.10;;;;;;;;;;4897613;29;20052;-86
2021/06/28 03:23:14;;;;;;;0.10;0.10;;;;;;;;;;4881892;29;20040;-86
2021/06/28 03:25:40;;;;;;;0.10;0.10;;;;;;;;;;4897505;29;20040;-86
2021/06/28 03:28:06;;;;;;;0.10;0.10;;;;;;;;;;4881896;29;20078;-87
2021/06/28 03:30:32;;;;;;;0.10;0.10;;;;;;;;;;4881859;29;20123;-86
2021/06/28 03:32:58;;;;;;;0.10;0.10;;;;;;;;;;4897338;29;20047;-86
2021/06/28 03:35:24;;;;;;;0.57;0.57;;;;;;;;;;4897225;29;20048;-86
2021/06/28 03:37:50;;;;;;;0.10;0.10;;;;;;;;;;4897117;29;20521;-86
2021/06/28 03:40:16;;;;;;;0.10;0.10;;;;;;;;;;4897227;29;20104;-86
2021/06/28 03:42:42;;;;;;;0.15;0.15;;;;;;;;;;4881577;29;20041;-85
2021/06/28 03:45:12;;;;;;;0.90;0.35;;;;;;;;;;4897111;29;20044;-86
2021/06/28 03:47:38;;;;;;;0.20;0.20;;;;;;;;;;4896996;29;20115;-86
2021/06/28 03:50:06;;;;;;;0.10;0.10;;;;;;;;;;4897112;29;20052;-86
2021/06/28 03:52:32;;;;;;;0.10;0.10;;;;;;;;;;4896848;29;20056;-85
2021/06/28 03:54:58;;;;;;;0.30;0.30;;;;;;;;;;4896941;29;20111;-86
2021/06/28 03:57:24;;;;;;;0.10;0.10;;;;;;;;;;4896685;29;20040;-85
2021/06/28 03:59:50;;;;;;;0.10;0.10;;;;;;;;;;4896496;29;20044;-86
2021/06/28 04:02:17;;;;;;;0.20;0.20;;;;;;;;;;4896728;29;20052;-86
2021/06/28 04:04:48;;;;;;;0.20;0.20;;;;;;;;;;4881484;29;20059;-86
2021/06/28 04:07:14;;;;;;;0.10;0.10;;;;;;;;;;4897763;29;20049;-86
2021/06/28 04:09:40;;;;;;;0.10;0.10;;;;;;;;;;4896582;29;20121;-86
2021/06/28 04:12:07;;;;;;;0.10;0.10;;;;;;;;;;4896605;29;20044;-86
2021/06/28 04:14:33;;;;;;;0.40;0.40;;;;;;;;;;4896456;29;20435;-87
2021/06/28 04:16:59;;;;;;;0.45;0.45;;;;;;;;;;4896559;29;20063;-86
2021/06/28 04:19:26;;;;;;;0.20;0.20;;;;;;;;;;4896433;29;20067;-86
2021/06/28 04:21:52;;;;;;;0.10;0.10;;;;;;;;;;4896481;29;20048;-86
2021/06/28 04:24:19;;;;;;;0.20;0.20;;;;;;;;;;4865473;29;20041;-86
2021/06/28 04:26:45;;;;;;;0.10;0.10;;;;;;;;;;4896238;29;20046;-86
2021/06/28 04:29:11;;;;;;;0.10;0.10;;;;;;;;;;4896377;29;20048;-86
2021/06/28 04:31:37;;;;;;;0.10;0.10;;;;;;;;;;4880935;29;20040;-86
2021/06/28 04:34:04;;;;;;;0.10;0.10;;;;;;;;;;4897275;29;20487;-86
2021/06/28 04:36:30;;;;;;;0.10;0.10;;;;;;;;;;4896124;29;20403;-86
2021/06/28 04:38:56;;;;;;;0.10;0.10;;;;;;;;;;4896083;29;20056;-86
2021/06/28 04:41:22;;;;;;;0.20;0.20;;;;;;;;;;4880922;29;20494;-85
2021/06/28 04:43:48;;;;;;;0.10;0.10;;;;;;;;;;4896368;29;20546;-86
2021/06/28 04:46:14;;;;;;;0.20;0.20;;;;;;;;;;4880848;29;20068;-86
2021/06/28 04:48:40;;;;;;;0.20;0.20;;;;;;;;;;4895795;29;20471;-86
2021/06/28 04:51:06;;;;;;;0.15;0.15;;;;;;;;;;4897238;29;20503;-86
2021/06/28 04:53:32;;;;;;;0.20;0.20;;;;;;;;;;4880648;29;20044;-86
2021/06/28 04:55:58;;;;;;;0.10;0.10;;;;;;;;;;4880482;29;20542;-86
2021/06/28 04:58:25;;;;;;;0.10;0.10;;;;;;;;;;4897164;29;20040;-86
2021/06/28 05:00:51;;;;;;;0.10;0.10;;;;;;;;;;4895886;29;20041;-86
2021/06/28 05:03:17;;;;;;;0.20;0.20;;;;;;;;;;4895817;29;20407;-85
2021/06/28 05:05:44;;;;;;;0.10;0.10;;;;;;;;;;4896989;29;20036;-86
2021/06/28 05:08:10;;;;;;;0.10;0.10;;;;;;;;;;4895742;29;20124;-85
2021/06/28 05:10:36;;;;;;;0.10;0.10;;;;;;;;;;4897067;29;20445;-85
2021/06/28 05:13:02;;;;;;;0.20;0.20;;;;;;;;;;4899845;29;20037;-85
2021/06/28 05:15:28;;;;;;;0.10;0.10;;;;;;;;;;4899814;29;20059;-86
2021/06/28 05:17:54;;;;;;;0.10;0.10;;;;;;;;;;4884133;29;20048;-85
2021/06/28 05:20:22;;;;;;;0.10;0.10;;;;;;;;;;4884049;29;20076;-86
2021/06/28 05:22:48;;;;;;;0.10;0.10;;;;;;;;;;4900900;29;20040;-86
2021/06/28 05:25:14;;;;;;;0.10;0.10;;;;;;;;;;4899589;29;20419;-86
2021/06/28 05:27:40;;;;;;;0.15;0.15;;;;;;;;;;4900662;29;20079;-85
2021/06/28 05:30:08;;;;;;;0.10;0.10;;;;;;;;;;4883929;29;20045;-86
2021/06/28 05:32:34;;;;;;;0.10;0.10;;;;;;;;;;4883940;29;20048;-87
2021/06/28 05:35:00;;;;;;;0.10;0.10;;;;;;;;;;4899306;29;20131;-85
2021/06/28 05:37:26;;;;;;;0.10;0.10;;;;;;;;;;4899360;29;20052;-86
2021/06/28 05:39:52;;;;;;;0.10;0.10;;;;;;;;;;4899258;29;20040;-86
2021/06/28 05:42:18;;;;;;;0.10;0.10;;;;;;;;;;4899262;29;20045;-85
2021/06/28 05:44:44;;;;;;;0.10;0.10;;;;;;;;;;4899270;29;20484;-86
2021/06/28 05:47:12;;;;;;;0.10;0.10;;;;;;;;;;4899176;29;20040;-86
2021/06/28 05:49:40;;;;;;;0.10;0.10;;;;;;;;;;4883819;29;20049;-86
2021/06/28 05:52:06;;;;;;;0.10;0.10;;;;;;;;;;4883927;29;20053;-86
2021/06/28 05:54:32;;;;;;;0.10;0.10;;;;;;;;;;4899085;29;20036;-86
2021/06/28 05:56:58;;;;;;;0.20;0.20;;;;;;;;;;4899437;29;20099;-86
2021/06/28 05:59:24;;;;;;;0.10;0.10;;;;;;;;;;4898890;29;20391;-86
2021/06/28 06:01:50;;;;;;;0.10;0.10;;;;;;;;;;4898976;29;20037;-86
2021/06/28 06:04:16;;;;;;;0.10;0.10;;;;;;;;;;4883299;29;20513;-85
2021/06/28 06:06:42;;;;;;;0.10;0.10;;;;;;;;;;4898756;29;20115;-86
2021/06/28 06:09:09;;;;;;;0.40;0.40;;;;;;;;;;4883414;29;20073;-86
2021/06/28 06:11:35;;;;;;;0.30;0.30;;;;;;;;;;4898683;29;20044;-86
2021/06/28 06:14:01;;;;;;;0.13;0.13;;;;;;;;;;4883132;29;20052;-85
2021/06/28 06:16:28;;;;;;;0.10;0.10;;;;;;;;;;4898778;29;20111;-86
2021/06/28 06:18:54;;;;;;;0.20;0.20;;;;;;;;;;4883320;29;20044;-86
2021/06/28 06:21:22;;;;;;;0.43;0.20;;;;;;;;;;4898138;29;20053;-86
2021/06/28 06:23:48;;;;;;;0.10;0.10;;;;;;;;;;4898617;29;20063;-86
2021/06/28 06:26:14;;;;;;;0.20;0.20;;;;;;;;;;4899639;29;20082;-86
2021/06/28 06:28:41;;;;;;;0.10;0.10;;;;;;;;;;4882765;29;20067;-86
2021/06/28 06:31:07;;;;;;;0.10;0.10;;;;;;;;;;4898376;29;20041;-86
2021/06/28 06:33:33;;;;;;;0.20;0.20;;;;;;;;;;4898355;29;20398;-87
2021/06/28 06:35:59;;;;;;;0.10;0.10;;;;;;;;;;4898499;29;20461;-86
2021/06/28 06:38:25;;;;;;;0.10;0.10;;;;;;;;;;4882538;29;20135;-86
2021/06/28 06:40:52;;;;;;;0.20;0.20;;;;;;;;;;4898172;29;20126;-87
2021/06/28 06:43:18;;;;;;;0.10;0.10;;;;;;;;;;4898120;29;20068;-86
2021/06/28 06:45:44;;;;;;;0.20;0.20;;;;;;;;;;4899302;29;20032;-86
2021/06/28 06:48:10;;;;;;;0.10;0.10;;;;;;;;;;4898136;29;20460;-86
2021/06/28 06:50:36;;;;;;;0.45;0.20;;;;;;;;;;4898039;29;20045;-87
2021/06/28 06:53:02;;;;;;;0.20;0.20;;;;;;;;;;4899406;29;20171;-86
2021/06/28 06:55:29;;;;;;;0.10;0.10;;;;;;;;;;4898093;29;20487;-87
2021/06/28 06:57:55;;;;;;;0.10;0.10;;;;;;;;;;4882327;29;20455;-87
2021/06/28 07:00:21;;;;;;;0.35;0.35;;;;;;;;;;4882251;29;20044;-87
2021/06/28 07:02:48;;;;;;;0.20;0.20;;;;;;;;;;4897919;29;20037;-87
2021/06/28 07:05:14;;;;;;;0.20;0.20;;;;;;;;;;4897922;29;20044;-86
2021/06/28 07:07:41;;;;;;;0.20;0.20;;;;;;;;;;4897680;29;20459;-87
2021/06/28 07:10:07;;;;;;;0.25;0.25;;;;;;;;;;4882301;29;20048;-88
2021/06/28 07:12:34;;;;;;;0.10;0.10;;;;;;;;;;4882153;29;20100;-87
2021/06/28 07:15:03;;;;;;;0.10;0.10;;;;;;;;;;4882668;29;20037;-86
2021/06/28 07:17:29;;;;;;;0.10;0.10;;;;;;;;;;4898843;29;20033;-87
2021/06/28 07:19:55;;;;;;;0.20;0.20;;;;;;;;;;4881977;29;20072;-87
2021/06/28 07:22:23;;;;;;;0.10;0.10;;;;;;;;;;4897380;29;20060;-87
2021/06/28 07:24:49;;;;;;;0.20;0.20;;;;;;;;;;4897345;29;20044;-89
2021/06/28 07:27:15;;;;;;;0.30;0.30;;;;;;;;;;4897300;29;20043;-87
2021/06/28 07:29:41;;;;;;;0.40;0.40;;;;;;;;;;4897739;29;20044;-86
2021/06/28 07:32:07;;;;;;;0.30;0.30;;;;;;;;;;4897420;29;20037;-86
2021/06/28 07:34:33;;;;;;;0.20;0.20;;;;;;;;;;4897857;29;20040;-87
2021/06/28 07:36:59;;;;;;;0.10;0.10;;;;;;;;;;4881650;29;20047;-87
2021/06/28 07:39:26;;;;;;;0.20;0.20;;;;;;;;;;4881525;29;20048;-87
2021/06/28 07:41:52;;;;;;;0.30;0.30;;;;;;;;;;4881584;29;20063;-87
2021/06/28 07:44:22;;;;;;;0.20;0.20;;;;;;;;;;4897048;29;20040;-87
2021/06/28 07:46:48;;;;;;;0.10;0.10;;;;;;;;;;4896874;29;20041;-87
2021/06/28 07:49:14;;;;;;;0.20;0.20;;;;;;;;;;4897059;29;20403;-87
2021/06/28 07:51:40;;;;;;;0.47;0.47;;;;;;;;;;4898083;29;20040;-87
2021/06/28 07:54:06;;;;;;;0.20;0.20;;;;;;;;;;4881494;29;20128;-87
2021/06/28 07:56:33;;;;;;;0.20;0.20;;;;;;;;;;4896991;29;20040;-87
2021/06/28 07:58:59;;;;;;;0.20;0.20;;;;;;;;;;4896878;29;20498;-87
2021/06/28 08:01:25;;;;;;;0.28;0.28;;;;;;;;;;4896680;29;20049;-87
2021/06/28 08:03:51;;;;;;;0.30;0.30;;;;;;;;;;4881541;29;20045;-87
2021/06/28 08:06:17;;;;;;;0.20;0.20;;;;;;;;;;4881281;29;20072;-87
2021/06/28 08:08:44;;;;;;;0.30;0.30;;;;;;;;;;4896561;29;20096;-87
2021/06/28 08:11:10;;;;;;;0.20;0.20;;;;;;;;;;4896557;29;20092;-88
2021/06/28 08:13:37;;;;;;;0.30;0.30;;;;;;;;;;4881310;29;20416;-87
2021/06/28 08:16:04;;;;;;;0.20;0.20;;;;;;;;;;4896789;29;20041;-87
2021/06/28 08:18:30;;;;;;;0.10;0.10;;;;;;;;;;4897546;29;20060;-87
2021/06/28 08:20:56;;;;;;;0.17;0.17;;;;;;;;;;4896199;29;20095;-87
2021/06/28 08:23:23;;;;;;;0.20;0.20;;;;;;;;;;4896437;29;20072;-87
2021/06/28 08:25:49;;;;;;;0.20;0.20;;;;;;;;;;4896416;29;20115;-87
2021/06/28 08:28:15;;;;;;;0.30;0.30;;;;;;;;;;4897593;29;20048;-87
2021/06/28 08:30:41;;;;;;;0.20;0.20;;;;;;;;;;4897551;29;20036;-87
2021/06/28 08:33:07;;;;;;;0.30;0.30;;;;;;;;;;4880972;29;20461;-87
2021/06/28 08:35:33;;;;;;;0.20;0.20;;;;;;;;;;4880779;29;20120;-88
2021/06/28 08:38:01;;;;;;;0.30;0.30;;;;;;;;;;4880730;29;20055;-87
2021/06/28 08:40:27;;;;;;;0.20;0.20;;;;;;;;;;4880686;29;20044;-87
2021/06/28 08:42:53;;;;;;;0.20;0.20;;;;;;;;;;4896105;29;20040;-87
2021/06/28 08:45:19;;;;;;;0.30;0.30;;;;;;;;;;4896067;29;20044;-89
2021/06/28 08:47:45;;;;;;;0.20;0.20;;;;;;;;;;4895993;29;20040;-88
2021/06/28 08:50:11;;;;;;;0.20;0.20;;;;;;;;;;4896023;29;20071;-88
2021/06/28 08:52:42;;;;;;;0.25;0.25;;;;;;;;;;4896138;29;20119;-88
2021/06/28 08:55:08;;;;;;;0.20;0.20;;;;;;;;;;4881011;29;20045;-88
2021/06/28 08:57:35;;;;;;;0.30;0.30;;;;;;;;;;4895880;29;20680;-88
2021/06/28 09:00:01;;;;;;;0.20;0.20;;;;;;;;;;4895927;29;20036;-87
2021/06/28 09:02:27;;;;;;;0.20;0.20;;;;;;;;;;4880450;29;20048;-88
2021/06/28 09:04:57;;;;;;;0.20;0.20;;;;;;;;;;4895869;29;20084;-88
2021/06/28 09:07:23;;;;;;;0.20;0.20;;;;;;;;;;4895818;29;20063;-88
2021/06/28 09:09:49;;;;;;;0.20;0.20;;;;;;;;;;4895958;29;20119;-88
2021/06/28 09:12:16;;;;;;;0.40;0.40;;;;;;;;;;4880326;29;20498;-89
2021/06/28 09:14:46;;;;;;;0.20;0.20;;;;;;;;;;4895889;29;20043;-88
2021/06/28 09:17:23;;;;;;;0.20;0.20;;;;;;;;;;4880283;29;20421;-88
2021/06/28 09:20:09;;;;;;;0.20;0.20;;;;;;;;;;4865190;29;20044;-88
2021/06/28 09:22:35;;;;;;;0.20;0.20;;;;;;;;;;4895043;29;20044;-88
2021/06/28 09:25:03;;;;;;;0.20;0.20;;;;;;;;;;4894977;29;20049;-89
2021/06/28 09:27:30;;;;;;;0.20;0.20;;;;;;;;;;4894904;29;20033;-88
2021/06/28 09:29:59;;;;;;;0.20;0.20;;;;;;;;;;4879640;29;20108;-89
2021/06/28 09:32:25;;;;;;;0.20;0.20;;;;;;;;;;4879540;29;20498;-88
2021/06/28 09:34:53;;;;;;;0.20;0.20;;;;;;;;;;4894806;29;20124;-88
2021/06/28 09:37:26;;;;;;;0.20;0.20;;;;;;;;;;4879477;29;20045;-88
2021/06/28 09:39:52;;;;;;;0.20;0.20;;;;;;;;;;4895845;29;20041;-89
2021/06/28 09:42:26;;;;;;;0.20;0.20;;;;;;;;;;4894818;29;20048;-89
2021/06/28 09:44:55;;;;;;;0.22;0.22;;;;;;;;;;4894762;29;20041;-86
2021/06/28 09:47:22;;;;;;;0.20;0.20;;;;;;;;;;4894647;29;20040;-88
2021/06/28 09:50:07;;;;;;;0.30;0.30;;;;;;;;;;4895303;29;20139;-88
2021/06/28 09:52:39;;;;;;;0.30;0.30;;;;;;;;;;4896570;29;20403;-89
2021/06/28 09:55:12;;;;;;;0.30;0.30;;;;;;;;;;4898348;29;20037;-89
2021/06/28 09:57:38;;;;;;;0.20;0.20;;;;;;;;;;4904668;29;20036;-91
2021/06/28 10:00:23;;;;;;;0.22;0.22;;;;;;;;;;4903032;29;20085;-92
2021/06/28 10:02:49;;;;;;;0.20;0.20;;;;;;;;;;4886458;29;20048;-92
2021/06/28 10:05:18;;;;;;;0.20;0.20;;;;;;;;;;4884543;29;20036;-90
2021/06/28 10:07:44;;;;;;;0.20;0.20;;;;;;;;;;4900732;29;20263;-92
2021/06/28 10:10:15;;;;;;;0.30;0.30;;;;;;;;;;4868498;29;20052;-92
2021/06/28 10:12:49;;;;;;;0.20;0.20;;;;;;;;;;4885007;29;20502;-92
2021/06/28 10:15:16;;;;;;;0.30;0.30;;;;;;;;;;4883257;29;20048;-90
2021/06/28 10:17:42;;;;;;;0.20;0.20;;;;;;;;;;4884203;29;20175;-91
2021/06/28 10:20:31;;;;;;;0.35;0.35;;;;;;;;;;4700576;29;27242803;-91
2021/06/28 10:22:57;;;;;;;0.30;0.30;;;;;;;;;;4885094;29;20278;-91
2021/06/28 10:25:24;;;;;;;0.20;0.20;;;;;;;;;;4871538;29;20051;-91
2021/06/28 10:27:50;;;;;;;0.20;0.20;;;;;;;;;;4884965;29;20045;-91
2021/06/28 10:30:19;;;;;;;0.20;0.20;;;;;;;;;;4884157;29;20175;-92
2021/06/28 10:32:46;;;;;;;0.20;0.20;;;;;;;;;;4884924;29;20041;-92
2021/06/28 10:35:13;;;;;;;0.20;0.20;;;;;;;;;;4870144;29;20048;-91
2021/06/28 10:37:39;;;;;;;0.20;0.20;;;;;;;;;;4885480;29;20074;-92
2021/06/28 10:40:12;;;;;;;0.20;0.20;;;;;;;;;;4899916;29;20410;-92
2021/06/28 10:42:39;;;;;;;0.30;0.30;;;;;;;;;;4884497;29;20036;-91
2021/06/28 10:45:06;;;;;;;0.25;0.25;;;;;;;;;;4883782;29;20047;-92
2021/06/28 10:47:32;;;;;;;0.20;0.20;;;;;;;;;;4884977;29;20036;-92
2021/06/28 10:49:58;;;;;;;0.60;0.60;;;;;;;;;;4899180;29;20048;-92
2021/06/28 10:52:44;;;;;;;0.32;0.32;;;;;;;;;;4883450;29;20041;-92
2021/06/28 10:55:20;;;;;;;0.30;0.30;;;;;;;;;;4868096;29;20080;-92
2021/06/28 10:57:52;;;;;;;0.25;0.25;;;;;;;;;;4899245;29;20043;-91
2021/06/28 11:00:18;;;;;;;0.30;0.30;;;;;;;;;;4883400;29;20041;-92
2021/06/28 11:02:44;;;;;;;0.20;0.20;;;;;;;;;;4884490;29;20032;-92
2021/06/28 11:05:11;;;;;;;0.20;0.20;;;;;;;;;;4883266;29;20115;-92
2021/06/28 11:07:48;;;;;;;0.40;0.40;;;;;;;;;;4882441;29;20041;-92
2021/06/28 11:10:15;;;;;;;0.20;0.20;;;;;;;;;;4899065;29;20040;-93
2021/06/28 11:12:41;;;;;;;0.20;0.20;;;;;;;;;;4867654;29;20056;-92
2021/06/28 11:15:24;;;;;;;0.30;0.30;;;;;;;;;;4883076;29;20068;-92
2021/06/28 11:17:51;;;;;;;0.20;0.20;;;;;;;;;;4898523;29;20051;-92
2021/06/28 11:20:49;;;;;;;0.20;0.20;;;;;;;;;;4882875;29;20522;-92
2021/06/28 11:23:16;;;;;;;0.40;0.40;;;;;;;;;;4867862;29;20061;-92
2021/06/28 11:25:44;;;;;;;0.30;0.30;;;;;;;;;;4883002;29;20040;-92
2021/06/28 11:28:10;;;;;;;0.30;0.30;;;;;;;;;;4882940;29;20451;-92
2021/06/28 11:30:44;;;;;;;0.25;0.25;;;;;;;;;;4898426;29;20487;-92
2021/06/28 11:33:13;;;;;;;0.20;0.20;;;;;;;;;;4867674;29;20086;-92
2021/06/28 11:35:40;;;;;;;0.20;0.20;;;;;;;;;;4882833;29;20076;-92
2021/06/28 11:38:13;;;;;;;0.30;0.30;;;;;;;;;;4897898;29;20043;-92
2021/06/28 11:40:39;;;;;;;0.20;0.20;;;;;;;;;;4897989;29;20120;-92
2021/06/28 11:43:06;;;;;;;0.20;0.20;;;;;;;;;;4882636;29;20045;-92
2021/06/28 11:45:48;;;;;;;0.20;0.20;;;;;;;;;;4882627;29;20128;-91
2021/06/28 11:48:30;;;;;;;0.20;0.20;;;;;;;;;;4867409;29;20048;-92
2021/06/28 11:50:56;;;;;;;0.20;0.20;;;;;;;;;;4882425;29;20045;-92
2021/06/28 11:53:22;;;;;;;0.20;0.20;;;;;;;;;;4882923;29;20043;-93
2021/06/28 11:55:49;;;;;;;0.30;0.30;;;;;;;;;;4883076;29;20036;-92
2021/06/28 11:58:16;;;;;;;0.20;0.20;;;;;;;;;;4882499;29;20040;-92
2021/06/28 12:00:42;;;;;;;0.30;0.30;;;;;;;;;;4899087;29;20044;-92
2021/06/28 12:03:24;;;;;;;0.20;0.20;;;;;;;;;;4882401;29;20044;-92
2021/06/28 12:05:50;;;;;;;0.20;0.20;;;;;;;;;;4868717;29;20139;-93
2021/06/28 12:08:25;;;;;;;0.20;0.20;;;;;;;;;;4882890;29;20083;-92
2021/06/28 12:10:55;;;;;;;0.20;0.20;;;;;;;;;;4882841;29;20040;-92
2021/06/28 12:13:28;;;;;;;0.20;0.20;;;;;;;;;;4882553;29;20052;-91
2021/06/28 12:15:54;;;;;;;0.20;0.20;;;;;;;;;;4882048;29;20049;-93
2021/06/28 12:18:20;;;;;;;0.20;0.20;;;;;;;;;;4897864;29;20044;-91
2021/06/28 12:20:55;;;;;;;0.20;0.20;;;;;;;;;;4881386;29;20152;-93
2021/06/28 12:23:23;;;;;;;0.25;0.25;;;;;;;;;;4866884;29;20550;-93
2021/06/28 12:25:49;;;;;;;0.30;0.30;;;;;;;;;;4882349;29;20498;-92
2021/06/28 12:28:15;;;;;;;0.20;0.20;;;;;;;;;;4881538;29;20054;-92
2021/06/28 12:30:41;;;;;;;0.20;0.20;;;;;;;;;;4882534;29;20053;-92
2021/06/28 12:33:08;;;;;;;0.32;0.32;;;;;;;;;;4882254;29;20033;-91
2021/06/28 12:35:34;;;;;;;0.30;0.30;;;;;;;;;;4897096;29;20040;-92
2021/06/28 12:38:01;;;;;;;0.10;0.10;;;;;;;;;;4881881;29;20041;-92
2021/06/28 12:40:32;;;;;;;0.45;0.30;;;;;;;;;;4881492;29;20123;-92
2021/06/28 12:43:09;;;;;;;0.20;0.20;;;;;;;;;;4897287;29;20048;-91
2021/06/28 12:45:36;;;;;;;0.35;0.35;;;;;;;;;;4897376;29;20079;-92
2021/06/28 12:48:04;;;;;;;0.30;0.30;;;;;;;;;;4881702;29;20032;-92
2021/06/28 12:50:39;;;;;;;0.20;0.20;;;;;;;;;;4897260;29;20059;-92
2021/06/28 12:53:12;;;;;;;0.25;0.25;;;;;;;;;;4881550;29;20036;-92
2021/06/28 12:55:39;;;;;;;0.20;0.20;;;;;;;;;;4897061;29;20095;-92
2021/06/28 12:58:05;;;;;;;0.20;0.20;;;;;;;;;;4881350;29;20052;-93
2021/06/28 13:00:31;;;;;;;0.25;0.25;;;;;;;;;;4897065;29;20040;-92
2021/06/28 13:03:06;;;;;;;2.20;0.50;;;;;;;;;;4896815;29;20490;-92
2021/06/28 13:05:51;;;;;;;0.20;0.20;;;;;;;;;;4881363;29;20049;-92
2021/06/28 13:08:24;;;;;;;0.20;0.20;;;;;;;;;;4897289;29;20095;-92
2021/06/28 13:10:56;;;;;;;0.50;0.30;;;;;;;;;;4881561;29;20053;-92
2021/06/28 13:13:23;;;;;;;0.20;0.20;;;;;;;;;;4897914;29;20036;-92
2021/06/28 13:16:09;;;;;;;0.20;0.20;;;;;;;;;;4897071;29;20036;-92
2021/06/28 13:18:35;;;;;;;0.20;0.20;;;;;;;;;;4897447;29;20123;-92
2021/06/28 13:21:02;;;;;;;0.20;0.20;;;;;;;;;;4865883;29;20056;-92
2021/06/28 13:23:28;;;;;;;0.20;0.20;;;;;;;;;;4896719;29;20041;-92
2021/06/28 13:25:54;;;;;;;0.38;0.38;;;;;;;;;;4881206;29;20052;-92
2021/06/28 13:28:20;;;;;;;0.20;0.20;;;;;;;;;;4866029;29;20135;-92
2021/06/28 13:30:59;;;;;;;0.20;0.20;;;;;;;;;;4868253;29;20064;-92
2021/06/28 13:33:26;;;;;;;0.20;0.20;;;;;;;;;;4900971;29;20147;-93
2021/06/28 13:35:52;;;;;;;0.20;0.20;;;;;;;;;;4885155;29;20414;-92
2021/06/28 13:38:19;;;;;;;0.20;0.20;;;;;;;;;;4869511;29;20058;-92
2021/06/28 13:40:54;;;;;;;0.20;0.20;;;;;;;;;;4869569;29;20049;-92
2021/06/28 13:43:21;;;;;;;0.30;0.30;;;;;;;;;;4869374;29;20137;-92
2021/06/28 13:45:48;;;;;;;0.20;0.20;;;;;;;;;;4884909;29;20108;-92
2021/06/28 13:48:14;;;;;;;0.30;0.30;;;;;;;;;;4884497;29;20040;-92
2021/06/28 13:50:47;;;;;;;0.20;0.20;;;;;;;;;;4885110;29;20051;-92
2021/06/28 13:53:14;;;;;;;0.20;0.20;;;;;;;;;;4885197;29;20040;-92
2021/06/28 13:55:41;;;;;;;0.20;0.20;;;;;;;;;;4869569;29;20045;-92
2021/06/28 13:58:07;;;;;;;0.20;0.20;;;;;;;;;;4884456;29;20041;-92
2021/06/28 14:00:39;;;;;;;0.20;0.20;;;;;;;;;;4868938;29;20044;-93
2021/06/28 14:03:06;;;;;;;0.20;0.20;;;;;;;;;;4900077;29;20053;-92
2021/06/28 14:05:32;;;;;;;0.20;0.20;;;;;;;;;;4884812;29;20037;-92
2021/06/28 14:07:59;;;;;;;0.32;0.32;;;;;;;;;;4871247;29;20053;-92
2021/06/28 14:10:25;;;;;;;0.20;0.20;;;;;;;;;;4885059;29;20540;-92
2021/06/28 14:12:51;;;;;;;0.20;0.20;;;;;;;;;;4899644;29;20057;-92
2021/06/28 14:15:17;;;;;;;0.20;0.20;;;;;;;;;;4884415;29;20425;-93
2021/06/28 14:17:44;;;;;;;0.20;0.20;;;;;;;;;;4869074;29;20519;-92
2021/06/28 14:20:11;;;;;;;0.17;0.17;;;;;;;;;;4884060;29;20047;-91
2021/06/28 14:22:37;;;;;;;0.20;0.20;;;;;;;;;;4868997;29;20136;-92
2021/06/28 14:25:07;;;;;;;0.35;0.35;;;;;;;;;;4868815;29;20048;-92
2021/06/28 14:27:33;;;;;;;0.30;0.30;;;;;;;;;;4883894;29;20107;-92
2021/06/28 14:30:00;;;;;;;0.20;0.20;;;;;;;;;;4884362;29;20040;-92
2021/06/28 14:32:27;;;;;;;0.20;0.20;;;;;;;;;;4868903;29;20048;-92
2021/06/28 14:34:55;;;;;;;0.20;0.20;;;;;;;;;;4868539;29;20055;-92
2021/06/28 14:37:21;;;;;;;0.52;0.52;;;;;;;;;;4884208;29;20470;-91
2021/06/28 14:39:47;;;;;;;0.15;0.15;;;;;;;;;;4884261;29;20052;-92
2021/06/28 14:42:13;;;;;;;0.20;0.20;;;;;;;;;;4899547;29;20045;-92
2021/06/28 14:44:39;;;;;;;0.30;0.30;;;;;;;;;;4883720;29;20037;-92